Port Gamble, WA (98364)

11:21 AM PDT on May 28, 2015 (GMT -0700)
resource ridge | | Change Station
CLOSE
Current Station
Personal Weather Station
Location: Kingston, WA
Elevation: 177 ft
Nearby Weather Stations

Elev 177 ft 47.81 °N, 122.57 °W | Updated 5 minutes ago

Mostly Cloudy
Mostly Cloudy
76.5 °F
Feels Like 78 °F
N
0.0
Wind Variable Wind from West

Today
High -- | Low -- °F
--% Chance of Precip.
Yesterday
High -- | Low -- °F
Precip. -- in
5:18 AM 8:57 PM
Waxing Gibbous, 77% visible
Pressure 30.08 in
Visibility 10.0 miles
Clouds Clear
Heat Index 78 °F
Dew Point 59 °F
Humidity 54%
Rainfall 0.00 in
Snow Depth Not available.
UV 8 out of 12
Pollen 8.40 out of 12
Air Quality Not available.
Flu Activity Sporadic
METAR KPAE 281753Z 01004KT 10SM CLR 20/11 A3008 RMK AO2 SLP186 T02000111 10200 20117 58001

More Conditions Fewer Conditions

Pressure 30.08 in
Visibility 10.0 miles
Clouds Clear
Heat Index 78 °F
Dew Point 59 °F
Humidity 54%
Rainfall 0.00 in
Snow Depth Not available.
UV 8 out of 12
Pollen 8.40 out of 12
Air Quality Not available.
Flu Activity Sporadic
METAR KPAE 281753Z 01004KT 10SM CLR 20/11 A3008 RMK AO2 SLP186 T02000111 10200 20117 58001

More Conditions Fewer Conditions

10-Day Weather Forecast

Almanac

Astronomy

May. 28, 2015 Rise Set
Actual Time
Civil Twilight
Nautical Twilight
Astronomical Twilight
Moon
Length of Visible Light
Length of Day
Tomorrow will be .
, % of the Moon is Illuminated

Today's Extremes

State Highs State Lows

Community

WunderPhotos

Upload Photos

1,825,009 photos uploaded!

WunderBlogs® & News

Nearby

Air Quality

  Air Quality AQ Index Pollutant
Not available.

Snow Depth

Station Depth Elevation

Earthquake Activity

City Distance Mag. Time & Date
Minimum magnitude displayed is 2.5.

Coastal Water Temperatures

Place Temperature

Stations

Nearby Weather Stations

Station Location Temp. Windchill Dew Point Humidity Wind Precip. Elev Updated Type